sensor_id;sensor_type;location;lat;lon;timestamp;temperature;humidity
10143;DHT22;5112;54.088;13.446;2024-02-15T00:04:17;10.20;99.90
10143;DHT22;5112;54.088;13.446;2024-02-15T00:14:21;10.30;99.90
10143;DHT22;5112;54.088;13.446;2024-02-15T00:24:23;10.30;99.90
10143;DHT22;5112;54.088;13.446;2024-02-15T00:34:26;10.30;99.90
10143;DHT22;5112;54.088;13.446;2024-02-15T00:44:28;10.30;99.90
10143;DHT22;5112;54.088;13.446;2024-02-15T00:54:31;10.30;99.90
10143;DHT22;5112;54.088;13.446;2024-02-15T01:04:33;10.30;99.90
10143;DHT22;5112;54.088;13.446;2024-02-15T01:14:36;10.40;99.90
10143;DHT22;5112;54.088;13.446;2024-02-15T01:24:38;10.40;99.90
10143;DHT22;5112;54.088;13.446;2024-02-15T01:34:41;10.40;99.90
10143;DHT22;5112;54.088;13.446;2024-02-15T01:44:43;10.30;99.90
10143;DHT22;5112;54.088;13.446;2024-02-15T01:54:46;10.30;99.90
10143;DHT22;5112;54.088;13.446;2024-02-15T02:04:48;10.40;99.90
10143;DHT22;5112;54.088;13.446;2024-02-15T02:14:51;10.40;99.90
10143;DHT22;5112;54.088;13.446;2024-02-15T02:25:05;10.20;99.90
10143;DHT22;5112;54.088;13.446;2024-02-15T02:35:08;10.20;99.90
10143;DHT22;5112;54.088;13.446;2024-02-15T02:45:13;10.30;99.90
10143;DHT22;5112;54.088;13.446;2024-02-15T02:55:15;10.20;99.90
10143;DHT22;5112;54.088;13.446;2024-02-15T03:05:19;10.20;99.90
10143;DHT22;5112;54.088;13.446;2024-02-15T03:15:21;10.30;99.90
10143;DHT22;5112;54.088;13.446;2024-02-15T03:25:25;10.30;99.90
10143;DHT22;5112;54.088;13.446;2024-02-15T03:35:29;10.30;99.90
10143;DHT22;5112;54.088;13.446;2024-02-15T03:45:33;10.40;99.90
10143;DHT22;5112;54.088;13.446;2024-02-15T03:55:34;10.30;99.90
10143;DHT22;5112;54.088;13.446;2024-02-15T04:05:38;10.40;99.90
10143;DHT22;5112;54.088;13.446;2024-02-15T04:15:39;10.30;99.90
10143;DHT22;5112;54.088;13.446;2024-02-15T04:25:43;10.30;99.90
10143;DHT22;5112;54.088;13.446;2024-02-15T04:35:51;10.30;99.90
10143;DHT22;5112;54.088;13.446;2024-02-15T04:45:54;10.40;99.90
10143;DHT22;5112;54.088;13.446;2024-02-15T04:55:57;10.40;99.90
10143;DHT22;5112;54.088;13.446;2024-02-15T05:06:05;10.30;99.90
10143;DHT22;5112;54.088;13.446;2024-02-15T05:16:08;10.30;99.90
10143;DHT22;5112;54.088;13.446;2024-02-15T05:26:11;10.30;99.90
10143;DHT22;5112;54.088;13.446;2024-02-15T05:36:18;10.30;99.90
10143;DHT22;5112;54.088;13.446;2024-02-15T05:46:22;10.30;99.90
10143;DHT22;5112;54.088;13.446;2024-02-15T05:56:23;10.30;99.90
10143;DHT22;5112;54.088;13.446;2024-02-15T06:06:27;10.30;99.90
10143;DHT22;5112;54.088;13.446;2024-02-15T06:16:29;10.30;99.90
10143;DHT22;5112;54.088;13.446;2024-02-15T06:26:32;10.30;99.90
10143;DHT22;5112;54.088;13.446;2024-02-15T06:36:39;10.30;99.90
10143;DHT22;5112;54.088;13.446;2024-02-15T06:47:00;10.40;99.90
10143;DHT22;5112;54.088;13.446;2024-02-15T06:57:02;10.30;99.90
10143;DHT22;5112;54.088;13.446;2024-02-15T07:07:06;10.30;99.90
10143;DHT22;5112;54.088;13.446;2024-02-15T07:17:08;10.40;99.90
10143;DHT22;5112;54.088;13.446;2024-02-15T07:27:12;10.40;99.90
10143;DHT22;5112;54.088;13.446;2024-02-15T07:37:14;10.50;99.90
10143;DHT22;5112;54.088;13.446;2024-02-15T07:47:18;10.70;99.90
10143;DHT22;5112;54.088;13.446;2024-02-15T07:57:24;10.80;99.90
10143;DHT22;5112;54.088;13.446;2024-02-15T08:07:28;10.80;99.90
10143;DHT22;5112;54.088;13.446;2024-02-15T08:17:32;10.80;99.90
10143;DHT22;5112;54.088;13.446;2024-02-15T08:27:35;10.90;99.90
10143;DHT22;5112;54.088;13.446;2024-02-15T08:37:41;11.00;99.90
10143;DHT22;5112;54.088;13.446;2024-02-15T08:47:45;11.10;99.90
10143;DHT22;5112;54.088;13.446;2024-02-15T08:57:47;11.10;99.90
10143;DHT22;5112;54.088;13.446;2024-02-15T09:07:49;11.30;99.90
10143;DHT22;5112;54.088;13.446;2024-02-15T09:17:52;11.40;99.90
10143;DHT22;5112;54.088;13.446;2024-02-15T09:27:56;11.60;99.90
10143;DHT22;5112;54.088;13.446;2024-02-15T09:37:58;11.80;99.90
10143;DHT22;5112;54.088;13.446;2024-02-15T09:48:05;11.90;99.90
10143;DHT22;5112;54.088;13.446;2024-02-15T09:58:07;11.80;99.90
10143;DHT22;5112;54.088;13.446;2024-02-15T10:08:11;11.80;99.90
10143;DHT22;5112;54.088;13.446;2024-02-15T10:18:12;11.90;99.90
10143;DHT22;5112;54.088;13.446;2024-02-15T10:28:21;12.00;99.90
10143;DHT22;5112;54.088;13.446;2024-02-15T10:38:25;12.20;99.90
10143;DHT22;5112;54.088;13.446;2024-02-15T10:48:29;12.40;99.90
10143;DHT22;5112;54.088;13.446;2024-02-15T10:58:32;12.40;99.90
10143;DHT22;5112;54.088;13.446;2024-02-15T11:08:37;12.50;99.90
10143;DHT22;5112;54.088;13.446;2024-02-15T11:18:43;12.60;99.90
10143;DHT22;5112;54.088;13.446;2024-02-15T11:28:50;12.70;99.90
10143;DHT22;5112;54.088;13.446;2024-02-15T11:38:51;12.70;99.90
10143;DHT22;5112;54.088;13.446;2024-02-15T11:48:54;13.10;99.90
10143;DHT22;5112;54.088;13.446;2024-02-15T11:59:03;13.10;99.90
10143;DHT22;5112;54.088;13.446;2024-02-15T12:09:09;13.20;99.90
10143;DHT22;5112;54.088;13.446;2024-02-15T12:19:28;13.00;99.90
10143;DHT22;5112;54.088;13.446;2024-02-15T12:29:32;13.00;99.90
10143;DHT22;5112;54.088;13.446;2024-02-15T12:39:35;13.00;99.90
10143;DHT22;5112;54.088;13.446;2024-02-15T12:49:39;13.20;99.90
10143;DHT22;5112;54.088;13.446;2024-02-15T12:59:42;13.10;99.90
10143;DHT22;5112;54.088;13.446;2024-02-15T13:09:45;13.10;99.90
10143;DHT22;5112;54.088;13.446;2024-02-15T13:19:47;13.10;99.90
10143;DHT22;5112;54.088;13.446;2024-02-15T13:29:50;13.10;99.90
10143;DHT22;5112;54.088;13.446;2024-02-15T13:39:53;13.30;99.90
10143;DHT22;5112;54.088;13.446;2024-02-15T13:49:56;13.30;99.90
10143;DHT22;5112;54.088;13.446;2024-02-15T13:59:58;13.20;99.90
10143;DHT22;5112;54.088;13.446;2024-02-15T14:10:01;13.20;99.90
10143;DHT22;5112;54.088;13.446;2024-02-15T14:20:04;13.10;99.90
10143;DHT22;5112;54.088;13.446;2024-02-15T14:30:11;13.10;99.90
10143;DHT22;5112;54.088;13.446;2024-02-15T14:40:30;13.00;99.90
10143;DHT22;5112;54.088;13.446;2024-02-15T14:50:33;13.10;99.90
10143;DHT22;5112;54.088;13.446;2024-02-15T15:00:35;13.10;99.90
10143;DHT22;5112;54.088;13.446;2024-02-15T15:10:39;12.90;99.90
10143;DHT22;5112;54.088;13.446;2024-02-15T15:20:58;12.90;99.90
10143;DHT22;5112;54.088;13.446;2024-02-15T15:31:01;12.90;99.90
10143;DHT22;5112;54.088;13.446;2024-02-15T15:41:03;12.80;99.90
10143;DHT22;5112;54.088;13.446;2024-02-15T15:51:06;12.80;99.90
10143;DHT22;5112;54.088;13.446;2024-02-15T16:01:10;12.70;99.90
10143;DHT22;5112;54.088;13.446;2024-02-15T16:11:13;12.60;99.90
10143;DHT22;5112;54.088;13.446;2024-02-15T16:21:17;12.60;99.90
10143;DHT22;5112;54.088;13.446;2024-02-15T16:31:20;12.50;99.90
10143;DHT22;5112;54.088;13.446;2024-02-15T16:41:22;12.40;99.90
10143;DHT22;5112;54.088;13.446;2024-02-15T16:51:26;12.50;99.90
10143;DHT22;5112;54.088;13.446;2024-02-15T17:01:28;12.40;99.90
10143;DHT22;5112;54.088;13.446;2024-02-15T17:11:31;12.40;99.90
10143;DHT22;5112;54.088;13.446;2024-02-15T17:21:33;12.40;99.90
10143;DHT22;5112;54.088;13.446;2024-02-15T17:31:36;12.40;99.90
10143;DHT22;5112;54.088;13.446;2024-02-15T17:41:41;12.40;99.90
10143;DHT22;5112;54.088;13.446;2024-02-15T17:51:44;12.40;99.90
10143;DHT22;5112;54.088;13.446;2024-02-15T18:01:46;12.30;99.90
10143;DHT22;5112;54.088;13.446;2024-02-15T18:11:50;12.30;99.90
10143;DHT22;5112;54.088;13.446;2024-02-15T18:21:52;12.30;99.90
10143;DHT22;5112;54.088;13.446;2024-02-15T18:31:55;12.30;99.90
10143;DHT22;5112;54.088;13.446;2024-02-15T18:41:57;12.20;99.90
10143;DHT22;5112;54.088;13.446;2024-02-15T18:52:03;12.20;99.90
10143;DHT22;5112;54.088;13.446;2024-02-15T19:02:05;12.30;99.90
10143;DHT22;5112;54.088;13.446;2024-02-15T19:12:09;12.20;99.90
10143;DHT22;5112;54.088;13.446;2024-02-15T19:22:13;12.30;99.90
10143;DHT22;5112;54.088;13.446;2024-02-15T19:32:16;12.30;99.90
10143;DHT22;5112;54.088;13.446;2024-02-15T19:42:17;12.30;99.90
10143;DHT22;5112;54.088;13.446;2024-02-15T19:52:20;12.30;99.90
10143;DHT22;5112;54.088;13.446;2024-02-15T20:02:22;12.20;99.90
10143;DHT22;5112;54.088;13.446;2024-02-15T20:12:25;12.30;99.90
10143;DHT22;5112;54.088;13.446;2024-02-15T20:22:27;12.30;99.90
10143;DHT22;5112;54.088;13.446;2024-02-15T20:32:30;12.50;99.90
10143;DHT22;5112;54.088;13.446;2024-02-15T20:42:32;12.30;99.90
10143;DHT22;5112;54.088;13.446;2024-02-15T20:52:35;12.20;99.90
10143;DHT22;5112;54.088;13.446;2024-02-15T21:02:37;12.30;99.90
10143;DHT22;5112;54.088;13.446;2024-02-15T21:12:41;12.30;99.90
10143;DHT22;5112;54.088;13.446;2024-02-15T21:22:45;12.40;99.90
10143;DHT22;5112;54.088;13.446;2024-02-15T21:32:51;12.30;99.90
10143;DHT22;5112;54.088;13.446;2024-02-15T21:42:53;12.30;99.90
10143;DHT22;5112;54.088;13.446;2024-02-15T21:52:55;12.50;99.90
10143;DHT22;5112;54.088;13.446;2024-02-15T22:02:57;12.50;99.90
10143;DHT22;5112;54.088;13.446;2024-02-15T22:13:02;12.50;99.90
10143;DHT22;5112;54.088;13.446;2024-02-15T22:23:04;12.50;99.90
10143;DHT22;5112;54.088;13.446;2024-02-15T22:33:07;12.40;99.90
10143;DHT22;5112;54.088;13.446;2024-02-15T22:43:08;12.40;99.90
10143;DHT22;5112;54.088;13.446;2024-02-15T22:53:12;12.40;99.90
10143;DHT22;5112;54.088;13.446;2024-02-15T23:03:14;12.40;99.90
10143;DHT22;5112;54.088;13.446;2024-02-15T23:13:17;12.40;99.90
10143;DHT22;5112;54.088;13.446;2024-02-15T23:23:20;12.40;99.90
10143;DHT22;5112;54.088;13.446;2024-02-15T23:33:24;12.40;99.90
10143;DHT22;5112;54.088;13.446;2024-02-15T23:43:26;12.50;99.90
10143;DHT22;5112;54.088;13.446;2024-02-15T23:53:29;12.40;99.90
